sensor_id;sensor_type;location;lat;lon;timestamp;temperature;humidity
14138;DHT22;8199;51.310;9.466;2023-09-19T00:02:01;27.30;53.80
14138;DHT22;8199;51.310;9.466;2023-09-19T00:04:32;27.30;53.80
14138;DHT22;8199;51.310;9.466;2023-09-19T00:06:58;27.30;53.80
14138;DHT22;8199;51.310;9.466;2023-09-19T00:09:23;27.30;53.80
14138;DHT22;8199;51.310;9.466;2023-09-19T00:11:52;27.30;53.70
14138;DHT22;8199;51.310;9.466;2023-09-19T00:14:18;27.30;53.80
14138;DHT22;8199;51.310;9.466;2023-09-19T00:16:44;27.30;53.80
14138;DHT22;8199;51.310;9.466;2023-09-19T00:19:12;27.40;53.60
14138;DHT22;8199;51.310;9.466;2023-09-19T00:21:38;27.40;53.70
14138;DHT22;8199;51.310;9.466;2023-09-19T00:24:06;27.30;53.70
14138;DHT22;8199;51.310;9.466;2023-09-19T00:26:32;27.30;53.70
14138;DHT22;8199;51.310;9.466;2023-09-19T00:28:59;27.30;53.70
14138;DHT22;8199;51.310;9.466;2023-09-19T00:31:30;27.30;53.70
14138;DHT22;8199;51.310;9.466;2023-09-19T00:33:56;27.30;53.80
14138;DHT22;8199;51.310;9.466;2023-09-19T00:36:27;27.30;53.80
14138;DHT22;8199;51.310;9.466;2023-09-19T00:38:54;27.30;53.70
14138;DHT22;8199;51.310;9.466;2023-09-19T00:41:20;27.30;53.80
14138;DHT22;8199;51.310;9.466;2023-09-19T00:43:46;27.30;53.70
14138;DHT22;8199;51.310;9.466;2023-09-19T00:46:16;27.20;53.80
14138;DHT22;8199;51.310;9.466;2023-09-19T00:48:42;27.30;53.80
14138;DHT22;8199;51.310;9.466;2023-09-19T00:51:12;27.30;53.70
14138;DHT22;8199;51.310;9.466;2023-09-19T00:53:39;27.30;53.80
14138;DHT22;8199;51.310;9.466;2023-09-19T00:56:07;27.20;53.70
14138;DHT22;8199;51.310;9.466;2023-09-19T00:58:33;27.30;53.70
14138;DHT22;8199;51.310;9.466;2023-09-19T01:01:01;27.30;53.70
14138;DHT22;8199;51.310;9.466;2023-09-19T01:03:27;27.20;53.90
14138;DHT22;8199;51.310;9.466;2023-09-19T01:05:53;27.20;54.30
14138;DHT22;8199;51.310;9.466;2023-09-19T01:08:19;27.20;53.80
14138;DHT22;8199;51.310;9.466;2023-09-19T01:14:01;27.20;53.90
14138;DHT22;8199;51.310;9.466;2023-09-19T01:16:42;27.20;53.80
14138;DHT22;8199;51.310;9.466;2023-09-19T01:19:45;27.20;53.80
14138;DHT22;8199;51.310;9.466;2023-09-19T01:22:34;27.20;53.90
14138;DHT22;8199;51.310;9.466;2023-09-19T01:28:28;27.20;53.90
14138;DHT22;8199;51.310;9.466;2023-09-19T01:30:57;27.20;53.90
14138;DHT22;8199;51.310;9.466;2023-09-19T01:33:26;27.20;53.90
14138;DHT22;8199;51.310;9.466;2023-09-19T01:35:52;27.20;53.90
14138;DHT22;8199;51.310;9.466;2023-09-19T01:38:19;27.20;53.80
14138;DHT22;8199;51.310;9.466;2023-09-19T01:40:57;27.20;53.90
14138;DHT22;8199;51.310;9.466;2023-09-19T01:43:37;27.20;53.90
14138;DHT22;8199;51.310;9.466;2023-09-19T01:46:04;27.20;53.70
14138;DHT22;8199;51.310;9.466;2023-09-19T01:48:48;27.20;53.80
14138;DHT22;8199;51.310;9.466;2023-09-19T01:51:34;27.20;53.90
14138;DHT22;8199;51.310;9.466;2023-09-19T01:54:07;27.10;53.90
14138;DHT22;8199;51.310;9.466;2023-09-19T01:56:45;27.20;53.80
14138;DHT22;8199;51.310;9.466;2023-09-19T01:59:16;27.20;53.80
14138;DHT22;8199;51.310;9.466;2023-09-19T02:01:44;27.20;53.80
14138;DHT22;8199;51.310;9.466;2023-09-19T02:04:10;27.20;53.80
14138;DHT22;8199;51.310;9.466;2023-09-19T02:06:40;27.10;53.80
14138;DHT22;8199;51.310;9.466;2023-09-19T02:09:06;27.20;53.80
14138;DHT22;8199;51.310;9.466;2023-09-19T02:11:32;27.10;53.80
14138;DHT22;8199;51.310;9.466;2023-09-19T02:13:58;27.20;53.80
14138;DHT22;8199;51.310;9.466;2023-09-19T02:16:25;27.20;53.70
14138;DHT22;8199;51.310;9.466;2023-09-19T02:18:50;27.20;53.80
14138;DHT22;8199;51.310;9.466;2023-09-19T02:21:17;27.20;53.70
14138;DHT22;8199;51.310;9.466;2023-09-19T02:23:43;27.10;53.70
14138;DHT22;8199;51.310;9.466;2023-09-19T02:26:09;27.20;53.70
14138;DHT22;8199;51.310;9.466;2023-09-19T02:28:34;27.10;53.70
14138;DHT22;8199;51.310;9.466;2023-09-19T02:31:01;27.10;53.80
14138;DHT22;8199;51.310;9.466;2023-09-19T02:33:27;27.10;53.60
14138;DHT22;8199;51.310;9.466;2023-09-19T02:35:58;27.20;53.70
14138;DHT22;8199;51.310;9.466;2023-09-19T02:38:24;27.10;53.60
14138;DHT22;8199;51.310;9.466;2023-09-19T02:40:51;27.10;53.70
14138;DHT22;8199;51.310;9.466;2023-09-19T02:43:17;27.00;53.70
14138;DHT22;8199;51.310;9.466;2023-09-19T02:45:43;27.00;53.70
14138;DHT22;8199;51.310;9.466;2023-09-19T02:48:08;27.00;53.70
14138;DHT22;8199;51.310;9.466;2023-09-19T02:50:34;27.10;53.70
14138;DHT22;8199;51.310;9.466;2023-09-19T02:53:00;27.00;53.60
14138;DHT22;8199;51.310;9.466;2023-09-19T02:55:25;27.10;53.60
14138;DHT22;8199;51.310;9.466;2023-09-19T02:57:53;27.10;53.60
14138;DHT22;8199;51.310;9.466;2023-09-19T03:00:20;27.00;53.50
14138;DHT22;8199;51.310;9.466;2023-09-19T03:02:49;27.00;53.60
14138;DHT22;8199;51.310;9.466;2023-09-19T03:05:16;27.00;53.60
14138;DHT22;8199;51.310;9.466;2023-09-19T03:07:41;27.00;53.60
14138;DHT22;8199;51.310;9.466;2023-09-19T03:10:09;27.00;54.00
14138;DHT22;8199;51.310;9.466;2023-09-19T03:12:35;27.00;53.50
14138;DHT22;8199;51.310;9.466;2023-09-19T03:15:01;27.00;53.50
14138;DHT22;8199;51.310;9.466;2023-09-19T03:17:26;27.00;53.50
14138;DHT22;8199;51.310;9.466;2023-09-19T03:19:52;27.00;53.50
14138;DHT22;8199;51.310;9.466;2023-09-19T03:22:19;27.00;53.60
14138;DHT22;8199;51.310;9.466;2023-09-19T03:24:45;27.00;53.50
14138;DHT22;8199;51.310;9.466;2023-09-19T03:27:11;27.00;53.60
14138;DHT22;8199;51.310;9.466;2023-09-19T03:29:39;27.00;53.40
14138;DHT22;8199;51.310;9.466;2023-09-19T03:32:05;27.00;53.40
14138;DHT22;8199;51.310;9.466;2023-09-19T03:34:31;27.00;53.40
14138;DHT22;8199;51.310;9.466;2023-09-19T03:36:56;27.00;53.40
14138;DHT22;8199;51.310;9.466;2023-09-19T03:39:22;27.10;53.30
14138;DHT22;8199;51.310;9.466;2023-09-19T03:41:48;27.00;53.40
14138;DHT22;8199;51.310;9.466;2023-09-19T03:44:15;27.00;53.40
14138;DHT22;8199;51.310;9.466;2023-09-19T03:46:40;27.00;53.30
14138;DHT22;8199;51.310;9.466;2023-09-19T03:49:06;27.00;53.30
14138;DHT22;8199;51.310;9.466;2023-09-19T03:51:31;27.00;53.20
14138;DHT22;8199;51.310;9.466;2023-09-19T03:53:59;27.00;53.20
14138;DHT22;8199;51.310;9.466;2023-09-19T03:56:25;27.00;53.20
14138;DHT22;8199;51.310;9.466;2023-09-19T03:58:51;27.00;53.20
14138;DHT22;8199;51.310;9.466;2023-09-19T04:01:16;27.00;53.20
14138;DHT22;8199;51.310;9.466;2023-09-19T04:03:43;27.00;53.20
14138;DHT22;8199;51.310;9.466;2023-09-19T04:06:16;27.00;53.20
14138;DHT22;8199;51.310;9.466;2023-09-19T04:08:42;26.90;53.10
14138;DHT22;8199;51.310;9.466;2023-09-19T04:11:08;26.90;53.20
14138;DHT22;8199;51.310;9.466;2023-09-19T04:13:34;26.90;53.20
14138;DHT22;8199;51.310;9.466;2023-09-19T04:16:00;26.90;53.20
14138;DHT22;8199;51.310;9.466;2023-09-19T04:18:26;26.90;53.10
14138;DHT22;8199;51.310;9.466;2023-09-19T04:20:52;26.90;53.20
14138;DHT22;8199;51.310;9.466;2023-09-19T04:23:18;26.90;53.20
14138;DHT22;8199;51.310;9.466;2023-09-19T04:25:46;26.90;53.20
14138;DHT22;8199;51.310;9.466;2023-09-19T04:28:12;26.90;53.10
14138;DHT22;8199;51.310;9.466;2023-09-19T04:30:38;26.90;53.10
14138;DHT22;8199;51.310;9.466;2023-09-19T04:33:06;26.90;53.20
14138;DHT22;8199;51.310;9.466;2023-09-19T04:35:31;26.90;53.10
14138;DHT22;8199;51.310;9.466;2023-09-19T04:37:57;26.90;53.10
14138;DHT22;8199;51.310;9.466;2023-09-19T04:40:23;26.90;53.10
14138;DHT22;8199;51.310;9.466;2023-09-19T04:42:56;26.90;53.10
14138;DHT22;8199;51.310;9.466;2023-09-19T04:45:22;26.90;53.20
14138;DHT22;8199;51.310;9.466;2023-09-19T04:47:48;26.90;53.20
14138;DHT22;8199;51.310;9.466;2023-09-19T04:50:13;26.90;53.30
14138;DHT22;8199;51.310;9.466;2023-09-19T04:52:43;26.80;53.20
14138;DHT22;8199;51.310;9.466;2023-09-19T04:55:13;26.90;53.20
14138;DHT22;8199;51.310;9.466;2023-09-19T04:57:51;26.90;53.10
14138;DHT22;8199;51.310;9.466;2023-09-19T05:00:20;27.00;53.20
14138;DHT22;8199;51.310;9.466;2023-09-19T05:02:51;26.90;53.20
14138;DHT22;8199;51.310;9.466;2023-09-19T05:05:17;26.90;53.40
14138;DHT22;8199;51.310;9.466;2023-09-19T05:07:44;26.90;53.40
14138;DHT22;8199;51.310;9.466;2023-09-19T05:10:10;26.90;53.50
14138;DHT22;8199;51.310;9.466;2023-09-19T05:12:37;26.90;53.50
14138;DHT22;8199;51.310;9.466;2023-09-19T05:15:03;26.80;53.40
14138;DHT22;8199;51.310;9.466;2023-09-19T05:17:30;26.90;53.30
14138;DHT22;8199;51.310;9.466;2023-09-19T05:19:57;26.90;53.40
14138;DHT22;8199;51.310;9.466;2023-09-19T05:22:23;26.90;53.40
14138;DHT22;8199;51.310;9.466;2023-09-19T05:24:51;26.80;53.30
14138;DHT22;8199;51.310;9.466;2023-09-19T05:27:18;26.80;53.40
14138;DHT22;8199;51.310;9.466;2023-09-19T05:29:44;26.80;53.30
14138;DHT22;8199;51.310;9.466;2023-09-19T05:32:10;26.80;53.20
14138;DHT22;8199;51.310;9.466;2023-09-19T05:34:36;26.80;53.20
14138;DHT22;8199;51.310;9.466;2023-09-19T05:37:02;26.80;53.20
14138;DHT22;8199;51.310;9.466;2023-09-19T05:39:28;26.80;53.10
14138;DHT22;8199;51.310;9.466;2023-09-19T05:41:53;26.80;53.10
14138;DHT22;8199;51.310;9.466;2023-09-19T05:44:19;26.90;53.10
14138;DHT22;8199;51.310;9.466;2023-09-19T05:46:44;26.80;53.00
14138;DHT22;8199;51.310;9.466;2023-09-19T05:49:13;26.80;53.00
14138;DHT22;8199;51.310;9.466;2023-09-19T05:51:39;26.80;53.00
14138;DHT22;8199;51.310;9.466;2023-09-19T05:54:04;26.90;53.00
14138;DHT22;8199;51.310;9.466;2023-09-19T05:56:30;26.90;52.90
14138;DHT22;8199;51.310;9.466;2023-09-19T05:58:56;26.90;52.90
14138;DHT22;8199;51.310;9.466;2023-09-19T06:01:22;26.90;52.90
14138;DHT22;8199;51.310;9.466;2023-09-19T06:03:48;26.90;52.70
14138;DHT22;8199;51.310;9.466;2023-09-19T06:06:14;26.90;52.90
14138;DHT22;8199;51.310;9.466;2023-09-19T06:08:39;26.90;52.80
14138;DHT22;8199;51.310;9.466;2023-09-19T06:11:05;26.90;52.90
14138;DHT22;8199;51.310;9.466;2023-09-19T06:13:34;26.90;53.00
14138;DHT22;8199;51.310;9.466;2023-09-19T06:16:00;26.90;53.10
14138;DHT22;8199;51.310;9.466;2023-09-19T06:18:30;26.90;53.00
14138;DHT22;8199;51.310;9.466;2023-09-19T06:20:59;26.90;53.20
14138;DHT22;8199;51.310;9.466;2023-09-19T06:23:25;26.90;53.10
14138;DHT22;8199;51.310;9.466;2023-09-19T06:25:52;26.90;53.10
14138;DHT22;8199;51.310;9.466;2023-09-19T06:28:19;26.90;53.50
14138;DHT22;8199;51.310;9.466;2023-09-19T06:30:49;26.90;53.00
14138;DHT22;8199;51.310;9.466;2023-09-19T06:33:15;26.90;53.00
14138;DHT22;8199;51.310;9.466;2023-09-19T06:35:41;26.90;53.10
14138;DHT22;8199;51.310;9.466;2023-09-19T06:38:07;26.80;53.00
14138;DHT22;8199;51.310;9.466;2023-09-19T06:40:34;26.80;53.10
14138;DHT22;8199;51.310;9.466;2023-09-19T06:43:00;26.90;53.00
14138;DHT22;8199;51.310;9.466;2023-09-19T06:45:28;26.90;52.60
14138;DHT22;8199;51.310;9.466;2023-09-19T06:47:53;26.80;52.50
14138;DHT22;8199;51.310;9.466;2023-09-19T06:50:21;26.80;52.40
14138;DHT22;8199;51.310;9.466;2023-09-19T06:52:51;26.80;52.40
14138;DHT22;8199;51.310;9.466;2023-09-19T06:55:18;26.90;52.60
14138;DHT22;8199;51.310;9.466;2023-09-19T06:57:45;26.90;52.60
14138;DHT22;8199;51.310;9.466;2023-09-19T07:00:12;26.90;52.70
14138;DHT22;8199;51.310;9.466;2023-09-19T07:03:06;26.90;52.70
14138;DHT22;8199;51.310;9.466;2023-09-19T07:05:37;26.90;52.70
14138;DHT22;8199;51.310;9.466;2023-09-19T07:08:05;26.90;52.50
14138;DHT22;8199;51.310;9.466;2023-09-19T07:10:32;26.90;52.60
14138;DHT22;8199;51.310;9.466;2023-09-19T07:13:01;26.90;52.70
14138;DHT22;8199;51.310;9.466;2023-09-19T07:15:28;26.80;52.80
14138;DHT22;8199;51.310;9.466;2023-09-19T07:17:56;26.80;52.70
14138;DHT22;8199;51.310;9.466;2023-09-19T07:20:23;26.80;52.80
14138;DHT22;8199;51.310;9.466;2023-09-19T07:22:50;26.80;52.70
14138;DHT22;8199;51.310;9.466;2023-09-19T07:25:16;26.80;52.60
14138;DHT22;8199;51.310;9.466;2023-09-19T07:27:42;26.80;52.80
14138;DHT22;8199;51.310;9.466;2023-09-19T07:30:09;26.80;52.80
14138;DHT22;8199;51.310;9.466;2023-09-19T07:32:35;26.80;52.80
14138;DHT22;8199;51.310;9.466;2023-09-19T07:35:02;26.80;52.90
14138;DHT22;8199;51.310;9.466;2023-09-19T07:37:29;26.80;52.80
14138;DHT22;8199;51.310;9.466;2023-09-19T07:39:56;26.70;52.80
14138;DHT22;8199;51.310;9.466;2023-09-19T07:42:22;26.70;52.70
14138;DHT22;8199;51.310;9.466;2023-09-19T07:44:48;26.80;52.70
14138;DHT22;8199;51.310;9.466;2023-09-19T07:47:16;26.70;52.60
14138;DHT22;8199;51.310;9.466;2023-09-19T07:49:42;26.80;52.70
14138;DHT22;8199;51.310;9.466;2023-09-19T07:52:10;26.70;52.60
14138;DHT22;8199;51.310;9.466;2023-09-19T07:54:36;26.70;52.60
14138;DHT22;8199;51.310;9.466;2023-09-19T07:57:02;26.70;52.60
14138;DHT22;8199;51.310;9.466;2023-09-19T07:59:28;26.60;52.70
14138;DHT22;8199;51.310;9.466;2023-09-19T08:01:53;26.70;52.70
14138;DHT22;8199;51.310;9.466;2023-09-19T08:04:19;26.70;52.60
14138;DHT22;8199;51.310;9.466;2023-09-19T08:06:45;26.70;52.60
14138;DHT22;8199;51.310;9.466;2023-09-19T08:09:11;26.70;52.60
14138;DHT22;8199;51.310;9.466;2023-09-19T08:11:37;26.70;52.50
14138;DHT22;8199;51.310;9.466;2023-09-19T08:14:04;26.70;52.50
14138;DHT22;8199;51.310;9.466;2023-09-19T08:16:31;26.70;52.40
14138;DHT22;8199;51.310;9.466;2023-09-19T08:18:56;26.70;52.30
14138;DHT22;8199;51.310;9.466;2023-09-19T08:21:22;26.70;52.30
14138;DHT22;8199;51.310;9.466;2023-09-19T08:23:49;26.70;52.30
14138;DHT22;8199;51.310;9.466;2023-09-19T08:26:15;26.70;52.80
14138;DHT22;8199;51.310;9.466;2023-09-19T08:28:40;26.70;52.30
14138;DHT22;8199;51.310;9.466;2023-09-19T08:31:07;26.70;52.30
14138;DHT22;8199;51.310;9.466;2023-09-19T08:33:34;26.70;52.30
14138;DHT22;8199;51.310;9.466;2023-09-19T08:36:01;26.70;52.30
14138;DHT22;8199;51.310;9.466;2023-09-19T08:38:30;26.70;52.20
14138;DHT22;8199;51.310;9.466;2023-09-19T08:40:59;26.70;52.20
14138;DHT22;8199;51.310;9.466;2023-09-19T08:43:25;26.70;52.20
14138;DHT22;8199;51.310;9.466;2023-09-19T08:45:58;26.70;52.20
14138;DHT22;8199;51.310;9.466;2023-09-19T08:48:27;26.70;52.20
14138;DHT22;8199;51.310;9.466;2023-09-19T08:51:18;26.70;52.10
14138;DHT22;8199;51.310;9.466;2023-09-19T08:54:24;26.70;52.00
14138;DHT22;8199;51.310;9.466;2023-09-19T08:56:41;26.70;52.10
14138;DHT22;8199;51.310;9.466;2023-09-19T08:59:09;26.70;52.10
14138;DHT22;8199;51.310;9.466;2023-09-19T09:01:35;26.70;52.10
14138;DHT22;8199;51.310;9.466;2023-09-19T09:04:02;26.70;52.10
14138;DHT22;8199;51.310;9.466;2023-09-19T09:06:29;26.70;52.00
14138;DHT22;8199;51.310;9.466;2023-09-19T09:08:55;26.70;52.60
14138;DHT22;8199;51.310;9.466;2023-09-19T09:11:22;26.70;52.10
14138;DHT22;8199;51.310;9.466;2023-09-19T09:13:50;26.60;52.00
14138;DHT22;8199;51.310;9.466;2023-09-19T09:16:16;26.70;52.00
14138;DHT22;8199;51.310;9.466;2023-09-19T09:18:45;26.70;52.10
14138;DHT22;8199;51.310;9.466;2023-09-19T09:21:11;26.70;52.10
14138;DHT22;8199;51.310;9.466;2023-09-19T09:23:37;26.60;52.00
14138;DHT22;8199;51.310;9.466;2023-09-19T09:26:04;26.70;52.00
14138;DHT22;8199;51.310;9.466;2023-09-19T09:28:33;26.70;51.90
14138;DHT22;8199;51.310;9.466;2023-09-19T09:30:59;26.70;51.90
14138;DHT22;8199;51.310;9.466;2023-09-19T09:33:26;26.60;51.80
14138;DHT22;8199;51.310;9.466;2023-09-19T09:35:57;26.70;51.80
14138;DHT22;8199;51.310;9.466;2023-09-19T09:41:10;26.60;51.70
14138;DHT22;8199;51.310;9.466;2023-09-19T09:43:41;26.70;51.80
14138;DHT22;8199;51.310;9.466;2023-09-19T09:46:20;26.60;51.70
14138;DHT22;8199;51.310;9.466;2023-09-19T09:51:50;26.60;51.80
14138;DHT22;8199;51.310;9.466;2023-09-19T09:54:26;26.70;51.80
14138;DHT22;8199;51.310;9.466;2023-09-19T09:57:06;26.70;51.80
14138;DHT22;8199;51.310;9.466;2023-09-19T09:59:56;26.70;51.80
14138;DHT22;8199;51.310;9.466;2023-09-19T10:02:41;26.70;51.80
14138;DHT22;8199;51.310;9.466;2023-09-19T10:05:15;26.70;51.80
14138;DHT22;8199;51.310;9.466;2023-09-19T10:07:48;26.70;51.80
14138;DHT22;8199;51.310;9.466;2023-09-19T10:10:36;26.70;51.80
14138;DHT22;8199;51.310;9.466;2023-09-19T10:13:10;26.70;51.80
14138;DHT22;8199;51.310;9.466;2023-09-19T10:15:42;26.70;51.80
14138;DHT22;8199;51.310;9.466;2023-09-19T10:18:14;26.70;51.70
14138;DHT22;8199;51.310;9.466;2023-09-19T10:20:44;26.70;51.70
14138;DHT22;8199;51.310;9.466;2023-09-19T10:23:11;26.70;51.70
14138;DHT22;8199;51.310;9.466;2023-09-19T10:25:44;26.80;51.80
14138;DHT22;8199;51.310;9.466;2023-09-19T10:28:13;26.80;51.80
14138;DHT22;8199;51.310;9.466;2023-09-19T10:30:45;26.80;51.90
14138;DHT22;8199;51.310;9.466;2023-09-19T10:33:13;26.70;51.90
14138;DHT22;8199;51.310;9.466;2023-09-19T10:35:42;26.70;51.90
14138;DHT22;8199;51.310;9.466;2023-09-19T10:38:09;26.70;51.90
14138;DHT22;8199;51.310;9.466;2023-09-19T10:40:37;26.70;51.80
14138;DHT22;8199;51.310;9.466;2023-09-19T10:43:06;26.80;51.90
14138;DHT22;8199;51.310;9.466;2023-09-19T10:45:35;26.70;51.80
14138;DHT22;8199;51.310;9.466;2023-09-19T10:48:02;26.80;51.90
14138;DHT22;8199;51.310;9.466;2023-09-19T10:50:41;26.80;51.90
14138;DHT22;8199;51.310;9.466;2023-09-19T10:53:10;26.70;51.80
14138;DHT22;8199;51.310;9.466;2023-09-19T10:55:38;26.70;51.80
14138;DHT22;8199;51.310;9.466;2023-09-19T10:58:05;26.70;51.80
14138;DHT22;8199;51.310;9.466;2023-09-19T11:00:57;26.70;51.80
14138;DHT22;8199;51.310;9.466;2023-09-19T11:03:37;26.70;51.80
14138;DHT22;8199;51.310;9.466;2023-09-19T11:06:13;26.80;51.80
14138;DHT22;8199;51.310;9.466;2023-09-19T11:08:55;26.70;51.70
14138;DHT22;8199;51.310;9.466;2023-09-19T11:11:51;26.80;51.60
14138;DHT22;8199;51.310;9.466;2023-09-19T11:30:32;26.80;51.60
14138;DHT22;8199;51.310;9.466;2023-09-19T11:33:27;26.80;51.80
14138;DHT22;8199;51.310;9.466;2023-09-19T11:36:05;26.80;51.80
14138;DHT22;8199;51.310;9.466;2023-09-19T11:43:46;26.80;51.80
14138;DHT22;8199;51.310;9.466;2023-09-19T11:46:13;26.80;51.70
14138;DHT22;8199;51.310;9.466;2023-09-19T11:48:42;26.80;51.70
14138;DHT22;8199;51.310;9.466;2023-09-19T11:51:17;26.80;51.70
14138;DHT22;8199;51.310;9.466;2023-09-19T11:53:52;26.80;51.60
14138;DHT22;8199;51.310;9.466;2023-09-19T11:56:20;26.80;51.60
14138;DHT22;8199;51.310;9.466;2023-09-19T11:58:49;26.80;51.60
14138;DHT22;8199;51.310;9.466;2023-09-19T12:01:25;26.80;51.70
14138;DHT22;8199;51.310;9.466;2023-09-19T12:03:54;26.80;51.70
14138;DHT22;8199;51.310;9.466;2023-09-19T12:06:20;26.80;51.60
14138;DHT22;8199;51.310;9.466;2023-09-19T12:08:47;26.80;51.50
14138;DHT22;8199;51.310;9.466;2023-09-19T12:11:16;26.80;51.60
14138;DHT22;8199;51.310;9.466;2023-09-19T12:13:46;26.80;51.50
14138;DHT22;8199;51.310;9.466;2023-09-19T12:18:41;26.80;51.50
14138;DHT22;8199;51.310;9.466;2023-09-19T12:24:13;26.80;51.50
14138;DHT22;8199;51.310;9.466;2023-09-19T12:26:43;26.80;51.50
14138;DHT22;8199;51.310;9.466;2023-09-19T12:29:14;26.80;51.50
14138;DHT22;8199;51.310;9.466;2023-09-19T12:31:54;26.80;51.40
14138;DHT22;8199;51.310;9.466;2023-09-19T12:34:28;26.80;51.50
14138;DHT22;8199;51.310;9.466;2023-09-19T12:39:41;26.90;52.10
14138;DHT22;8199;51.310;9.466;2023-09-19T12:42:09;26.90;51.50
14138;DHT22;8199;51.310;9.466;2023-09-19T12:44:37;26.80;51.60
14138;DHT22;8199;51.310;9.466;2023-09-19T12:47:16;26.80;51.50
14138;DHT22;8199;51.310;9.466;2023-09-19T12:50:15;26.80;51.60
14138;DHT22;8199;51.310;9.466;2023-09-19T12:52:51;26.90;51.70
14138;DHT22;8199;51.310;9.466;2023-09-19T12:55:23;26.90;51.60
14138;DHT22;8199;51.310;9.466;2023-09-19T12:58:08;26.90;51.50
14138;DHT22;8199;51.310;9.466;2023-09-19T13:00:42;26.80;51.50
14138;DHT22;8199;51.310;9.466;2023-09-19T13:03:24;26.90;51.50
14138;DHT22;8199;51.310;9.466;2023-09-19T13:06:00;26.90;51.50
14138;DHT22;8199;51.310;9.466;2023-09-19T13:08:39;26.90;51.60
14138;DHT22;8199;51.310;9.466;2023-09-19T13:11:14;26.90;51.60
14138;DHT22;8199;51.310;9.466;2023-09-19T13:13:51;26.90;51.60
14138;DHT22;8199;51.310;9.466;2023-09-19T13:16:33;26.90;51.60
14138;DHT22;8199;51.310;9.466;2023-09-19T13:18:59;26.90;51.60
14138;DHT22;8199;51.310;9.466;2023-09-19T13:21:32;26.90;51.60
14138;DHT22;8199;51.310;9.466;2023-09-19T13:26:43;26.90;51.60
14138;DHT22;8199;51.310;9.466;2023-09-19T13:29:09;26.80;51.60
14138;DHT22;8199;51.310;9.466;2023-09-19T13:31:34;26.90;51.50
14138;DHT22;8199;51.310;9.466;2023-09-19T13:34:01;26.90;51.30
14138;DHT22;8199;51.310;9.466;2023-09-19T13:36:26;26.90;51.10
14138;DHT22;8199;51.310;9.466;2023-09-19T13:38:52;26.90;50.80
14138;DHT22;8199;51.310;9.466;2023-09-19T13:41:18;26.80;50.70
14138;DHT22;8199;51.310;9.466;2023-09-19T13:43:44;26.80;50.50
14138;DHT22;8199;51.310;9.466;2023-09-19T13:46:13;26.80;50.60
14138;DHT22;8199;51.310;9.466;2023-09-19T13:48:41;27.00;50.50
14138;DHT22;8199;51.310;9.466;2023-09-19T13:51:06;27.00;50.50
14138;DHT22;8199;51.310;9.466;2023-09-19T13:53:32;27.00;50.60
14138;DHT22;8199;51.310;9.466;2023-09-19T13:55:57;26.90;50.70
14138;DHT22;8199;51.310;9.466;2023-09-19T13:58:23;26.90;50.70
14138;DHT22;8199;51.310;9.466;2023-09-19T14:00:49;26.90;51.00
14138;DHT22;8199;51.310;9.466;2023-09-19T14:03:16;26.90;51.10
14138;DHT22;8199;51.310;9.466;2023-09-19T14:05:41;26.80;51.10
14138;DHT22;8199;51.310;9.466;2023-09-19T14:08:08;26.80;51.10
14138;DHT22;8199;51.310;9.466;2023-09-19T14:10:34;26.90;51.20
14138;DHT22;8199;51.310;9.466;2023-09-19T14:13:00;26.90;51.10
14138;DHT22;8199;51.310;9.466;2023-09-19T14:15:26;26.90;51.10
14138;DHT22;8199;51.310;9.466;2023-09-19T14:17:58;26.90;51.00
14138;DHT22;8199;51.310;9.466;2023-09-19T14:20:24;26.90;51.50
14138;DHT22;8199;51.310;9.466;2023-09-19T14:22:52;26.90;51.10
14138;DHT22;8199;51.310;9.466;2023-09-19T14:25:18;26.90;51.00
14138;DHT22;8199;51.310;9.466;2023-09-19T14:27:43;26.90;51.10
14138;DHT22;8199;51.310;9.466;2023-09-19T14:30:09;26.90;51.10
14138;DHT22;8199;51.310;9.466;2023-09-19T14:32:35;26.80;51.00
14138;DHT22;8199;51.310;9.466;2023-09-19T14:35:02;26.90;51.10
14138;DHT22;8199;51.310;9.466;2023-09-19T14:37:27;26.80;50.90
14138;DHT22;8199;51.310;9.466;2023-09-19T14:39:53;26.90;51.00
14138;DHT22;8199;51.310;9.466;2023-09-19T14:42:19;26.90;51.00
14138;DHT22;8199;51.310;9.466;2023-09-19T14:44:45;26.90;51.00
14138;DHT22;8199;51.310;9.466;2023-09-19T14:47:12;26.80;51.00
14138;DHT22;8199;51.310;9.466;2023-09-19T14:49:38;26.80;51.10
14138;DHT22;8199;51.310;9.466;2023-09-19T14:52:09;26.80;51.10
14138;DHT22;8199;51.310;9.466;2023-09-19T14:54:35;26.80;51.00
14138;DHT22;8199;51.310;9.466;2023-09-19T14:57:03;26.90;50.90
14138;DHT22;8199;51.310;9.466;2023-09-19T14:59:34;26.90;50.90
14138;DHT22;8199;51.310;9.466;2023-09-19T15:02:05;26.90;51.00
14138;DHT22;8199;51.310;9.466;2023-09-19T15:04:31;26.90;50.90
14138;DHT22;8199;51.310;9.466;2023-09-19T15:06:56;26.90;51.20
14138;DHT22;8199;51.310;9.466;2023-09-19T15:09:23;26.90;51.20
14138;DHT22;8199;51.310;9.466;2023-09-19T15:11:54;26.90;51.20
14138;DHT22;8199;51.310;9.466;2023-09-19T15:14:20;26.80;51.20
14138;DHT22;8199;51.310;9.466;2023-09-19T15:16:46;26.80;51.10
14138;DHT22;8199;51.310;9.466;2023-09-19T15:19:13;26.80;51.00
14138;DHT22;8199;51.310;9.466;2023-09-19T15:21:39;26.80;51.00
14138;DHT22;8199;51.310;9.466;2023-09-19T15:24:06;26.80;51.00
14138;DHT22;8199;51.310;9.466;2023-09-19T15:26:35;26.80;51.10
14138;DHT22;8199;51.310;9.466;2023-09-19T15:29:07;26.80;51.00
14138;DHT22;8199;51.310;9.466;2023-09-19T15:31:33;26.70;51.00
14138;DHT22;8199;51.310;9.466;2023-09-19T15:33:58;26.80;51.00
14138;DHT22;8199;51.310;9.466;2023-09-19T15:36:24;26.80;50.90
14138;DHT22;8199;51.310;9.466;2023-09-19T15:39:08;26.80;50.90
14138;DHT22;8199;51.310;9.466;2023-09-19T15:41:40;26.80;51.00
14138;DHT22;8199;51.310;9.466;2023-09-19T15:44:15;26.80;50.90
14138;DHT22;8199;51.310;9.466;2023-09-19T15:46:41;26.80;50.90
14138;DHT22;8199;51.310;9.466;2023-09-19T15:49:07;26.70;50.80
14138;DHT22;8199;51.310;9.466;2023-09-19T15:51:34;26.70;50.80
14138;DHT22;8199;51.310;9.466;2023-09-19T15:54:02;26.70;50.80
14138;DHT22;8199;51.310;9.466;2023-09-19T15:56:33;26.70;50.80
14138;DHT22;8199;51.310;9.466;2023-09-19T15:59:00;26.70;50.80
14138;DHT22;8199;51.310;9.466;2023-09-19T16:01:26;26.90;50.70
14138;DHT22;8199;51.310;9.466;2023-09-19T16:03:53;26.80;50.60
14138;DHT22;8199;51.310;9.466;2023-09-19T16:06:22;26.90;50.90
14138;DHT22;8199;51.310;9.466;2023-09-19T16:08:51;26.90;50.90
14138;DHT22;8199;51.310;9.466;2023-09-19T16:11:17;26.80;50.80
14138;DHT22;8199;51.310;9.466;2023-09-19T16:13:45;26.90;50.70
14138;DHT22;8199;51.310;9.466;2023-09-19T16:16:12;26.90;50.70
14138;DHT22;8199;51.310;9.466;2023-09-19T16:18:51;26.90;50.80
14138;DHT22;8199;51.310;9.466;2023-09-19T16:21:18;26.90;50.80
14138;DHT22;8199;51.310;9.466;2023-09-19T16:23:46;26.90;50.80
14138;DHT22;8199;51.310;9.466;2023-09-19T16:26:12;26.90;50.70
14138;DHT22;8199;51.310;9.466;2023-09-19T16:28:41;26.90;50.60
14138;DHT22;8199;51.310;9.466;2023-09-19T16:31:08;26.90;50.70
14138;DHT22;8199;51.310;9.466;2023-09-19T16:33:38;26.90;50.90
14138;DHT22;8199;51.310;9.466;2023-09-19T16:36:10;26.90;50.90
14138;DHT22;8199;51.310;9.466;2023-09-19T16:38:36;26.90;50.90
14138;DHT22;8199;51.310;9.466;2023-09-19T16:41:06;26.90;50.90